Terminal Aerodrome Forecast
Issued by NWS Sioux Falls, SD

Home | Current Version | Previous Version | Graphics & Text | Print | Product List | Glossary Off
Versions: 1 2 3 4 5 6 7 8 9 10 11 12 13 14 15 16 17 18 19 20 21 22 23 24 25 26 27 28 29 30 31 32 33 34 35 36 37 38 39 40 41 42 43 44

000
FTUS43 KFSD 290532
TAFSUX
TAF
KSUX 290532Z 2906/3006 15007KT P6SM BKN080
      TEMPO 2906/2908 6SM SHRA BKN045
     FM290900 12007KT 4SM BR SCT007 BKN045
      TEMPO 2911/2913 2SM BR BKN007
     FM291400 21006KT 4SM BR OVC008
     FM291600 22006KT P6SM SCT015 BKN035
     FM300000 18006KT P6SM BKN045=

USA.gov is the U.S. government's official web portal to all federal, state and local government web resources and services.